Time;durP1;ratioP1;P1;durP2;ratioP2;P2;SDS_P1;SDS_P2;PMS_P1;PMS_P2;Temp;Humidity;BMP_temperature;BMP_pressure;BME280_temperature;BME280_humidity;BME280_pressure;Samples;Min_cycle;Max_cycle;Signal;HPM_P1;HPM_P2
2022/02/14 00:00:11;;;;;;;5.40;2.80;;;;;;;-1.25;49.20;99122.41;5052823;28;20041;-61
2022/02/14 00:02:41;;;;;;;3.75;2.40;;;;;;;-1.33;49.37;99111.22;5040480;28;20058;-62
2022/02/14 00:05:07;;;;;;;6.85;2.50;;;;;;;-1.25;49.70;99109.41;5034158;28;20048;-62
2022/02/14 00:07:33;;;;;;;9.25;2.30;;;;;;;-1.22;49.44;99106.47;5033835;28;20052;-62
2022/02/14 00:09:59;;;;;;;5.63;2.22;;;;;;;-1.22;49.20;99095.25;5032692;28;20467;-61
2022/02/14 00:12:25;;;;;;;5.50;2.30;;;;;;;-1.20;49.11;99094.13;5032635;28;20123;-61
2022/02/14 00:14:51;;;;;;;7.00;2.70;;;;;;;-1.15;49.40;99091.00;5019540;28;20044;-62
2022/02/14 00:17:17;;;;;;;3.85;2.60;;;;;;;-1.11;49.25;99094.09;5045299;28;20033;-63
2022/02/14 00:19:49;;;;;;;5.97;2.88;;;;;;;-1.10;49.11;99100.91;5032715;28;20503;-63
2022/02/14 00:22:18;;;;;;;4.20;2.70;;;;;;;-1.16;49.29;99104.97;5032505;28;20103;-62
2022/02/14 00:24:44;;;;;;;6.78;2.88;;;;;;;-1.15;49.16;99094.44;5032420;28;20069;-62
2022/02/14 00:27:10;;;;;;;5.35;2.72;;;;;;;-1.19;49.29;99087.13;5033502;28;20080;-63
2022/02/14 00:29:37;;;;;;;7.97;2.70;;;;;;;-1.14;49.22;99082.22;5033748;28;20053;-62
2022/02/14 00:32:03;;;;;;;4.55;2.63;;;;;;;-1.17;49.19;99098.97;5037602;28;20111;-63
2022/02/14 00:34:28;;;;;;;6.95;2.95;;;;;;;-1.14;49.20;99092.63;5053416;28;20045;-62
2022/02/14 00:36:54;;;;;;;6.32;2.75;;;;;;;-1.10;48.88;99101.72;5021398;28;20095;-61
2022/02/14 00:39:20;;;;;;;7.00;2.63;;;;;;;-1.11;49.05;99094.09;5033092;28;20514;-62
2022/02/14 00:41:46;;;;;;;5.20;2.10;;;;;;;-1.16;49.13;99084.19;5045411;28;20033;-63
2022/02/14 00:44:11;;;;;;;2.97;2.50;;;;;;;-1.15;49.37;99075.38;5053101;28;20140;-61
2022/02/14 00:46:37;;;;;;;7.97;2.40;;;;;;;-1.22;49.11;99064.03;5052965;28;20080;-62
2022/02/14 00:49:03;;;;;;;5.45;2.33;;;;;;;-1.15;48.70;99075.38;5032756;28;20041;-62
2022/02/14 00:51:28;;;;;;;3.47;2.50;;;;;;;-1.07;48.77;99083.16;5033321;28;20044;-60
2022/02/14 00:53:54;;;;;;;4.28;2.20;;;;;;;-1.04;48.99;99079.41;5032887;28;20060;-63
2022/02/14 00:56:20;;;;;;;3.92;2.50;;;;;;;-1.00;48.92;99084.13;5031936;28;20115;-62
2022/02/14 00:58:45;;;;;;;3.78;2.38;;;;;;;-1.07;48.93;99069.34;5032078;28;20083;-61
2022/02/14 01:01:11;;;;;;;4.57;2.60;;;;;;;-1.12;48.89;99071.63;5031595;28;20085;-61
2022/02/14 01:03:37;;;;;;;7.00;2.35;;;;;;;-1.10;49.01;99067.88;5032601;28;20415;-61
2022/02/14 01:06:03;;;;;;;6.35;2.40;;;;;;;-1.06;48.94;99068.34;5036772;28;20088;-61
2022/02/14 01:08:29;;;;;;;3.75;2.40;;;;;;;-1.04;48.88;99059.41;5032785;28;20045;-61
2022/02/14 01:10:55;;;;;;;4.32;2.15;;;;;;;-1.05;48.86;99065.59;5034635;28;20052;-61
2022/02/14 01:13:20;;;;;;;5.78;2.50;;;;;;;-0.98;48.89;99055.31;5031418;28;20136;-61
2022/02/14 01:15:46;;;;;;;4.65;2.47;;;;;;;-0.95;48.86;99057.56;5032950;28;20053;-61
2022/02/14 01:18:12;;;;;;;4.90;2.80;;;;;;;-1.02;48.90;99060.06;5032247;28;20049;-60
2022/02/14 01:20:38;;;;;;;5.30;2.20;;;;;;;-0.93;48.51;99053.00;5032892;28;20128;-61
2022/02/14 01:23:03;;;;;;;6.45;2.70;;;;;;;-0.94;48.55;99056.59;5032539;28;20525;-62
2022/02/14 01:25:29;;;;;;;3.88;2.60;;;;;;;-0.92;48.51;99052.81;5031282;28;20097;-62
2022/02/14 01:27:55;;;;;;;7.40;2.55;;;;;;;-0.93;48.66;99046.00;5044331;28;20045;-61
2022/02/14 01:30:20;;;;;;;5.88;2.72;;;;;;;-0.90;48.97;99051.88;5050758;28;20499;-62
2022/02/14 01:32:46;;;;;;;4.93;2.47;;;;;;;-0.99;48.60;99036.28;5049533;28;20550;-61
2022/02/14 01:35:12;;;;;;;5.22;2.38;;;;;;;-0.88;48.44;99031.66;5032436;28;20511;-62
2022/02/14 01:37:39;;;;;;;5.97;2.67;;;;;;;-0.84;48.82;99028.56;5014463;28;20041;-62
2022/02/14 01:40:07;;;;;;;5.35;2.22;;;;;;;-0.83;48.93;99029.38;4998222;28;20045;-61
2022/02/14 01:42:33;;;;;;;6.03;2.80;;;;;;;-0.91;48.94;99019.84;5032108;28;20045;-63
2022/02/14 01:44:59;;;;;;;4.72;2.65;;;;;;;-0.90;48.71;99016.25;5014419;28;20056;-61
2022/02/14 01:47:25;;;;;;;5.63;2.53;;;;;;;-0.88;48.52;99023.84;5030719;28;20091;-63
2022/02/14 01:49:52;;;;;;;7.65;2.78;;;;;;;-0.93;49.25;99021.78;5030224;28;20068;-62
2022/02/14 01:52:18;;;;;;;5.68;2.40;;;;;;;-0.94;48.91;99017.56;5031811;28;20079;-60
2022/02/14 01:54:47;;;;;;;5.78;2.45;;;;;;;-0.94;49.24;99004.56;5015207;28;20049;-61
2022/02/14 01:57:13;;;;;;;6.68;2.40;;;;;;;-1.04;49.20;98998.75;5050583;28;20049;-62
2022/02/14 01:59:40;;;;;;;7.32;2.58;;;;;;;-1.08;49.37;98998.31;5050563;28;20498;-61
2022/02/14 02:02:07;;;;;;;5.85;2.47;;;;;;;-1.06;49.75;99001.56;5043177;28;20049;-61
2022/02/14 02:04:34;;;;;;;7.03;3.10;;;;;;;-1.02;49.50;99008.03;5013952;28;20049;-62
2022/02/14 02:07:01;;;;;;;5.90;2.22;;;;;;;-1.06;49.63;99004.16;5030385;28;20049;-62
2022/02/14 02:09:27;;;;;;;6.03;2.40;;;;;;;-1.09;49.40;99014.88;5039730;28;20045;-60
2022/02/14 02:14:37;;;;;;;9.70;2.42;;;;;;;-1.11;49.52;99005.66;5031980;28;20426;-63
2022/02/14 02:17:03;;;;;;;4.57;2.35;;;;;;;-1.06;49.89;99003.31;5014244;28;20096;-63
2022/02/14 02:19:29;;;;;;;4.00;2.22;;;;;;;-1.17;50.06;99002.75;5030061;28;20045;-60
2022/02/14 02:21:55;;;;;;;5.60;3.10;;;;;;;-1.17;50.07;99007.13;5039009;28;20087;-63
2022/02/14 02:24:22;;;;;;;5.82;2.55;;;;;;;-1.13;49.85;99010.19;5038884;28;20052;-61
2022/02/14 02:27:04;;;;;;;6.97;2.55;;;;;;;-1.10;49.99;98999.44;5051554;28;20056;-63
2022/02/14 02:29:31;;;;;;;6.45;3.65;;;;;;;-1.20;50.41;99000.47;5049792;28;20052;-61
2022/02/14 02:31:57;;;;;;;5.32;2.88;;;;;;;-1.13;50.44;99010.19;5050415;28;20106;-61
2022/02/14 02:34:23;;;;;;;4.35;2.33;;;;;;;-1.15;50.20;98989.56;5051303;28;20506;-61
2022/02/14 02:36:54;;;;;;;4.35;2.55;;;;;;;-1.23;50.27;98994.81;5050295;28;20128;-60
2022/02/14 02:39:20;;;;;;;6.03;2.53;;;;;;;-1.22;50.52;98994.63;5045640;28;20128;-60
2022/02/14 02:41:46;;;;;;;4.57;2.63;;;;;;;-1.27;50.76;98989.13;5029936;28;20128;-62
2022/02/14 02:44:14;;;;;;;4.40;2.42;;;;;;;-1.31;50.97;98982.66;5030262;28;20046;-61
2022/02/14 02:46:40;;;;;;;6.35;2.50;;;;;;;-1.19;50.67;98988.28;5031163;28;20128;-62
2022/02/14 02:49:12;;;;;;;2.90;2.20;;;;;;;-1.16;50.72;98978.34;5029960;28;20503;-62
2022/02/14 02:51:41;;;;;;;4.85;2.63;;;;;;;-1.18;50.89;98980.31;5031212;28;20053;-61
2022/02/14 02:54:07;;;;;;;3.33;2.22;;;;;;;-1.17;50.50;98973.31;5031977;28;20534;-62
2022/02/14 02:56:39;;;;;;;6.20;2.90;;;;;;;-1.15;50.79;98966.13;5049816;28;20076;-60
2022/02/14 02:59:05;;;;;;;5.82;2.50;;;;;;;-1.20;50.84;98952.88;5049071;28;20037;-61
2022/02/14 03:01:32;;;;;;;7.63;2.85;;;;;;;-1.27;51.04;98972.72;5034523;28;20045;-62
2022/02/14 03:03:58;;;;;;;5.63;2.72;;;;;;;-1.27;51.16;98981.31;5025791;28;20038;-63
2022/02/14 03:06:24;;;;;;;5.13;2.80;;;;;;;-1.31;51.38;98954.06;5034906;28;20091;-61
2022/02/14 03:08:50;;;;;;;6.18;2.40;;;;;;;-1.28;51.65;98961.50;5035162;28;20068;-62
2022/02/14 03:11:17;;;;;;;7.43;2.92;;;;;;;-1.27;51.50;98955.31;5051601;28;20049;-62
2022/02/14 03:13:44;;;;;;;4.45;2.67;;;;;;;-1.25;51.51;98949.97;5054013;28;20040;-61
2022/02/14 03:16:10;;;;;;;4.82;2.60;;;;;;;-1.18;51.35;98948.28;5055150;28;20470;-61
2022/02/14 03:18:36;;;;;;;8.60;2.92;;;;;;;-1.22;51.62;98947.03;5053529;28;20045;-62
2022/02/14 03:21:02;;;;;;;7.32;2.67;;;;;;;-1.19;51.15;98944.06;5036958;28;20041;-61
2022/02/14 03:23:28;;;;;;;5.35;2.60;;;;;;;-1.23;51.59;98942.81;5053073;28;20037;-61
2022/02/14 03:25:54;;;;;;;5.20;2.55;;;;;;;-1.23;51.93;98938.41;5054891;28;20085;-62
2022/02/14 03:28:19;;;;;;;4.63;2.47;;;;;;;-1.25;51.70;98950.75;5054221;28;20099;-63
2022/02/14 03:30:45;;;;;;;3.58;2.53;;;;;;;-1.24;52.21;98947.19;5054918;28;20139;-61
2022/02/14 03:33:11;;;;;;;4.50;2.65;;;;;;;-1.26;51.88;98951.75;5054822;28;20051;-61
2022/02/14 03:35:37;;;;;;;6.57;3.25;;;;;;;-1.29;52.21;98948.69;5055063;28;20049;-60
2022/02/14 03:38:06;;;;;;;5.38;2.65;;;;;;;-1.30;51.87;98942.66;5053332;28;20131;-62
2022/02/14 03:40:34;;;;;;;3.83;2.25;;;;;;;-1.32;52.46;98933.41;5054903;28;20088;-62
2022/02/14 03:43:01;;;;;;;5.38;2.40;;;;;;;-1.34;52.22;98933.59;5052939;28;20048;-63
2022/02/14 03:45:27;;;;;;;5.63;3.00;;;;;;;-1.30;52.57;98934.06;5054443;28;20044;-61
2022/02/14 03:47:53;;;;;;;6.78;2.72;;;;;;;-1.39;52.71;98925.50;5054083;28;20525;-63
2022/02/14 03:50:19;;;;;;;5.78;3.15;;;;;;;-1.30;52.83;98939.25;5052665;28;20053;-62
2022/02/14 03:52:45;;;;;;;4.50;2.50;;;;;;;-1.23;52.79;98933.22;5054148;28;20037;-62
2022/02/14 03:55:11;;;;;;;5.57;2.70;;;;;;;-1.27;52.73;98933.72;5054279;28;20493;-62
2022/02/14 03:57:38;;;;;;;7.35;2.90;;;;;;;-1.36;53.14;98925.16;5054284;28;20069;-63
2022/02/14 04:00:08;;;;;;;8.00;2.92;;;;;;;-1.35;53.08;98928.56;5054368;28;20060;-61
2022/02/14 04:02:38;;;;;;;7.60;3.00;;;;;;;-1.31;53.25;98928.06;5053035;28;20063;-62
2022/02/14 04:05:04;;;;;;;3.40;2.40;;;;;;;-1.30;53.20;98924.47;5034286;28;20128;-61
2022/02/14 04:07:30;;;;;;;4.25;2.58;;;;;;;-1.26;52.94;98917.16;5032356;28;20486;-64
2022/02/14 04:09:58;;;;;;;4.85;2.83;;;;;;;-1.28;53.18;98919.91;5032391;28;20037;-60
2022/02/14 04:12:25;;;;;;;5.18;2.47;;;;;;;-1.31;53.33;98925.44;5018549;28;20124;-62
2022/02/14 04:14:50;;;;;;;6.93;3.08;;;;;;;-1.35;53.35;98912.97;5053431;28;20522;-63
2022/02/14 04:17:17;;;;;;;4.72;2.67;;;;;;;-1.32;53.51;98931.66;5052660;28;20036;-61
2022/02/14 04:19:43;;;;;;;7.00;3.25;;;;;;;-1.23;53.43;98943.63;5053630;28;20517;-62
2022/02/14 04:22:09;;;;;;;4.65;2.60;;;;;;;-1.24;53.44;98938.56;5053599;28;20041;-62
2022/02/14 04:24:35;;;;;;;9.68;2.80;;;;;;;-1.22;53.40;98947.81;5052245;28;20048;-61
2022/02/14 04:27:00;;;;;;;5.72;2.75;;;;;;;-1.22;53.44;98940.03;5038812;28;20419;-61
2022/02/14 04:29:26;;;;;;;4.07;2.53;;;;;;;-1.22;53.52;98944.41;5032115;28;20507;-62
2022/02/14 04:31:52;;;;;;;4.82;2.42;;;;;;;-1.26;53.71;98932.75;5033404;28;20049;-63
2022/02/14 04:34:19;;;;;;;7.60;2.42;;;;;;;-1.17;53.37;98935.13;5032135;28;20406;-62
2022/02/14 04:36:46;;;;;;;6.88;2.80;;;;;;;-1.19;53.82;98938.88;5032460;28;20129;-61
2022/02/14 04:39:11;;;;;;;5.53;2.90;;;;;;;-1.37;53.87;98921.75;5033532;28;20053;-62
2022/02/14 04:41:37;;;;;;;4.13;2.72;;;;;;;-1.20;53.97;98925.06;5040552;28;20520;-62
2022/02/14 04:44:04;;;;;;;6.95;3.03;;;;;;;-1.11;53.69;98928.41;5053059;28;20041;-61
2022/02/14 04:46:29;;;;;;;4.55;2.80;;;;;;;-1.15;53.66;98916.72;5042977;28;20060;-62
2022/02/14 04:48:55;;;;;;;4.50;2.60;;;;;;;-1.13;53.87;98921.78;5015444;28;20033;-62
2022/02/14 04:51:21;;;;;;;4.53;2.83;;;;;;;-1.12;53.79;98913.78;5033471;28;20088;-61
2022/02/14 04:53:47;;;;;;;4.07;2.83;;;;;;;-1.14;53.66;98910.56;5033038;28;20043;-61
2022/02/14 04:56:13;;;;;;;4.72;2.53;;;;;;;-1.17;53.72;98922.13;5017433;28;20466;-60
2022/02/14 04:58:39;;;;;;;4.50;2.90;;;;;;;-1.09;53.79;98920.44;5052881;28;20049;-63
2022/02/14 05:01:05;;;;;;;7.60;2.72;;;;;;;-1.10;53.91;98924.81;5037082;28;20057;-61
2022/02/14 05:03:30;;;;;;;5.78;2.80;;;;;;;-1.13;53.68;98924.38;5046725;28;20047;-62
2022/02/14 05:05:56;;;;;;;5.55;2.90;;;;;;;-1.08;53.49;98922.88;5053358;28;20421;-64
2022/02/14 05:08:22;;;;;;;4.38;2.97;;;;;;;-1.18;54.02;98917.91;5052787;28;20045;-63
2022/02/14 05:10:48;;;;;;;5.15;2.65;;;;;;;-1.08;54.01;98930.66;5018173;28;20041;-64
2022/02/14 05:13:14;;;;;;;5.65;2.83;;;;;;;-1.15;54.12;98921.94;5052735;28;20040;-62
2022/02/14 05:15:40;;;;;;;8.05;3.45;;;;;;;-1.11;54.17;98927.63;5031727;28;20059;-66
2022/02/14 05:18:05;;;;;;;5.85;2.53;;;;;;;-1.13;54.15;98930.38;5032462;28;20116;-65
2022/02/14 05:20:31;;;;;;;7.78;3.10;;;;;;;-1.16;54.22;98928.94;5032107;28;20548;-64
2022/02/14 05:22:57;;;;;;;6.53;3.00;;;;;;;-1.17;54.63;98942.13;5031270;28;20041;-63
2022/02/14 05:25:23;;;;;;;4.70;2.67;;;;;;;-1.20;55.04;98942.47;5030024;28;20049;-61
2022/02/14 05:27:49;;;;;;;5.53;2.60;;;;;;;-1.24;54.68;98928.97;5032364;28;20045;-62
2022/02/14 05:30:15;;;;;;;5.70;2.90;;;;;;;-1.13;54.49;98929.56;5042699;28;20071;-61
2022/02/14 05:32:41;;;;;;;5.90;3.03;;;;;;;-1.00;54.13;98921.97;5053470;28;20457;-63
2022/02/14 05:35:07;;;;;;;4.32;2.80;;;;;;;-1.06;54.23;98928.72;5050837;28;20048;-62
2022/02/14 05:37:33;;;;;;;5.00;2.78;;;;;;;-1.10;54.21;98926.63;5050518;28;20519;-64
2022/02/14 05:39:58;;;;;;;5.13;2.72;;;;;;;-1.11;54.63;98919.81;5050301;28;20048;-63
2022/02/14 05:42:26;;;;;;;5.43;3.20;;;;;;;-1.10;54.43;98921.41;5043576;28;20038;-63
2022/02/14 05:44:52;;;;;;;5.28;2.63;;;;;;;-1.28;55.07;98921.69;5032121;28;20124;-62
2022/02/14 05:47:18;;;;;;;5.63;3.05;;;;;;;-1.25;54.84;98921.34;5008594;28;20041;-63
2022/02/14 05:49:44;;;;;;;5.57;2.90;;;;;;;-1.23;55.03;98925.41;5013330;28;20100;-61
2022/02/14 05:52:09;;;;;;;4.30;2.80;;;;;;;-1.20;54.78;98917.25;5028894;28;20049;-64
2022/02/14 05:54:36;;;;;;;5.72;2.67;;;;;;;-1.23;55.06;98929.81;5027546;28;20045;-63
2022/02/14 05:57:02;;;;;;;8.05;2.85;;;;;;;-1.25;54.98;98926.56;5027966;28;20082;-63
2022/02/14 05:59:28;;;;;;;6.53;3.03;;;;;;;-1.33;55.44;98924.81;5028840;28;20418;-61
2022/02/14 06:01:54;;;;;;;4.25;2.42;;;;;;;-1.29;55.32;98907.91;5029591;28;20056;-63
2022/02/14 06:04:20;;;;;;;5.10;2.70;;;;;;;-1.27;55.11;98933.72;5027247;28;20045;-63
2022/02/14 06:06:45;;;;;;;7.47;2.97;;;;;;;-1.21;54.84;98925.22;5030136;28;20045;-63
2022/02/14 06:09:12;;;;;;;4.50;2.92;;;;;;;-1.18;55.24;98930.91;5029422;28;20049;-63
2022/02/14 06:11:39;;;;;;;5.22;3.05;;;;;;;-1.18;55.45;98930.91;5029380;28;20048;-64
2022/02/14 06:14:05;;;;;;;7.50;3.13;;;;;;;-1.17;55.09;98942.91;5029048;28;20471;-62
2022/02/14 06:16:31;;;;;;;4.30;2.50;;;;;;;-1.10;54.88;98939.63;5013487;28;20042;-63
2022/02/14 06:18:57;;;;;;;6.70;2.95;;;;;;;-1.10;55.18;98940.44;5028187;28;20092;-63
2022/02/14 06:21:23;;;;;;;5.57;3.20;;;;;;;-1.09;55.33;98938.63;5013752;28;20049;-62
2022/02/14 06:23:49;;;;;;;5.80;3.05;;;;;;;-1.13;55.27;98943.38;5028027;28;20052;-64
2022/02/14 06:26:15;;;;;;;5.63;3.30;;;;;;;-1.06;54.95;98941.72;5029821;28;20483;-63
2022/02/14 06:28:41;;;;;;;5.18;3.38;;;;;;;-1.00;54.94;98951.44;5030352;28;20041;-64
2022/02/14 06:31:08;;;;;;;6.80;3.20;;;;;;;-0.98;54.80;98948.66;5051156;28;20052;-64
2022/02/14 06:33:36;;;;;;;4.25;3.08;;;;;;;-1.02;55.00;98944.78;5049669;28;20494;-63
2022/02/14 06:36:03;;;;;;;8.65;3.53;;;;;;;-0.99;55.33;98947.84;5016356;28;20055;-63
2022/02/14 06:38:29;;;;;;;10.02;3.85;;;;;;;-0.94;54.82;98949.94;5049150;28;20051;-63
2022/02/14 06:40:55;;;;;;;5.82;3.05;;;;;;;-0.92;54.85;98946.16;5031731;28;20084;-63
2022/02/14 06:43:20;;;;;;;7.45;3.50;;;;;;;-0.88;55.18;98938.81;5027060;28;20366;-64
2022/02/14 06:45:47;;;;;;;10.13;3.88;;;;;;;-0.86;54.82;98938.63;5048143;28;20569;-62
2022/02/14 06:48:13;;;;;;;5.78;3.42;;;;;;;-0.84;54.78;98927.06;5046209;28;20197;-61
2022/02/14 06:50:39;;;;;;;6.13;3.35;;;;;;;-0.85;54.85;98928.06;5042608;28;20045;-62
2022/02/14 06:53:05;;;;;;;7.40;3.92;;;;;;;-0.64;54.64;98942.22;5036212;28;20044;-64
2022/02/14 06:55:30;;;;;;;6.30;3.90;;;;;;;-0.67;54.38;98939.97;5027204;28;20049;-65
2022/02/14 06:57:56;;;;;;;5.97;3.40;;;;;;;-0.56;54.19;98939.50;5043117;28;20083;-62
2022/02/14 07:00:22;;;;;;;7.45;3.70;;;;;;;-0.38;54.38;98944.38;5048504;28;20081;-61
2022/02/14 07:02:48;;;;;;;6.72;3.58;;;;;;;-0.28;53.61;98947.56;5049527;28;20060;-62
2022/02/14 07:05:17;;;;;;;5.32;3.20;;;;;;;-0.11;53.84;98948.22;5048804;28;20040;-62
2022/02/14 07:07:44;;;;;;;5.35;3.97;;;;;;;-0.05;53.44;98950.91;5041046;28;20092;-62
2022/02/14 07:10:10;;;;;;;6.80;3.72;;;;;;;0.13;53.14;98941.91;5011239;28;20526;-61
2022/02/14 07:12:37;;;;;;;5.78;3.30;;;;;;;0.40;52.22;98946.47;5029354;28;20045;-62
2022/02/14 07:15:04;;;;;;;5.55;3.58;;;;;;;0.55;51.82;98950.84;5026992;28;20403;-62
2022/02/14 07:17:31;;;;;;;11.60;4.85;;;;;;;0.64;51.75;98950.53;5011304;28;20049;-61
2022/02/14 07:19:58;;;;;;;6.45;3.97;;;;;;;0.62;51.66;98929.06;5043839;28;20379;-62
2022/02/14 07:22:24;;;;;;;6.22;3.88;;;;;;;0.71;51.27;98937.59;5029188;28;20466;-60
2022/02/14 07:24:50;;;;;;;3.78;3.33;;;;;;;0.68;51.70;98936.16;5030179;28;20040;-62
2022/02/14 07:27:16;;;;;;;7.00;3.60;;;;;;;0.75;52.00;98933.59;5048005;28;20044;-65
2022/02/14 07:29:43;;;;;;;7.32;4.20;;;;;;;0.90;51.42;98925.72;5046826;28;20045;-61
2022/02/14 07:32:09;;;;;;;7.95;4.78;;;;;;;0.95;51.45;98920.75;5047495;28;20144;-64
2022/02/14 07:34:34;;;;;;;9.30;4.03;;;;;;;0.97;51.25;98931.00;5027078;28;20044;-60
2022/02/14 07:37:02;;;;;;;8.35;3.45;;;;;;;0.98;51.38;98936.06;5012406;28;20045;-62
2022/02/14 07:39:33;;;;;;;8.20;4.05;;;;;;;1.07;51.51;98947.97;5026595;28;20037;-60
2022/02/14 07:42:00;;;;;;;7.35;4.25;;;;;;;1.07;50.81;98932.31;5033257;28;20565;-60
2022/02/14 07:44:26;;;;;;;6.80;4.85;;;;;;;1.14;51.71;98932.38;5030067;28;20568;-58
2022/02/14 07:46:53;;;;;;;8.45;4.05;;;;;;;1.18;51.40;98946.69;5017612;28;20201;-60
2022/02/14 07:49:19;;;;;;;7.25;4.45;;;;;;;1.27;50.81;98940.31;5047473;28;20041;-59
2022/02/14 07:51:45;;;;;;;7.15;4.68;;;;;;;1.27;51.48;98942.94;5044308;28;20041;-59
2022/02/14 07:54:11;;;;;;;8.55;4.70;;;;;;;1.30;51.24;98947.78;5034545;28;20415;-58
2022/02/14 07:56:38;;;;;;;11.32;4.40;;;;;;;1.31;50.77;98945.97;5030294;28;20049;-60
2022/02/14 07:59:04;;;;;;;6.68;3.63;;;;;;;1.47;50.37;98944.88;5032881;28;20121;-61
2022/02/14 08:01:30;;;;;;;7.93;4.30;;;;;;;1.59;50.54;98948.63;5030123;28;20100;-61
2022/02/14 08:03:56;;;;;;;8.40;4.53;;;;;;;1.40;50.83;98942.22;5030118;28;20033;-63
2022/02/14 08:06:22;;;;;;;8.02;4.32;;;;;;;1.50;50.64;98945.34;5030133;28;20046;-61
2022/02/14 08:08:49;;;;;;;9.07;4.57;;;;;;;1.70;49.94;98944.66;5029874;28;20041;-62
2022/02/14 08:11:16;;;;;;;4.82;3.80;;;;;;;1.76;50.21;98934.25;5029450;28;20054;-61
2022/02/14 08:13:42;;;;;;;6.78;3.95;;;;;;;1.86;49.84;98944.38;5032389;28;20045;-62
2022/02/14 08:16:08;;;;;;;6.13;4.45;;;;;;;1.84;49.79;98943.75;5030050;28;20507;-61
2022/02/14 08:18:34;;;;;;;8.45;4.13;;;;;;;1.80;50.54;98937.31;5031116;28;20139;-63
2022/02/14 08:20:59;;;;;;;8.13;4.22;;;;;;;1.92;50.24;98934.97;5014804;28;20045;-60
2022/02/14 08:23:25;;;;;;;7.63;4.85;;;;;;;1.88;50.25;98931.91;5030249;28;20042;-61
2022/02/14 08:25:51;;;;;;;11.15;4.60;;;;;;;1.91;49.71;98941.16;5032291;28;20526;-60
2022/02/14 08:28:17;;;;;;;9.18;4.78;;;;;;;1.83;50.10;98950.00;5031637;28;20099;-62
2022/02/14 08:30:43;;;;;;;10.25;5.05;;;;;;;1.73;50.46;98939.84;5030855;28;20081;-60
2022/02/14 08:33:10;;;;;;;8.68;4.13;;;;;;;1.75;50.61;98942.28;5030072;28;20475;-61
2022/02/14 08:35:37;;;;;;;7.07;4.25;;;;;;;1.71;50.79;98944.47;5028512;28;20494;-61
2022/02/14 08:38:07;;;;;;;10.13;4.35;;;;;;;1.62;51.20;98945.63;5030143;28;20513;-60
2022/02/14 08:40:35;;;;;;;7.28;4.75;;;;;;;1.71;50.99;98941.06;5029269;28;20150;-59
2022/02/14 08:43:02;;;;;;;10.80;4.93;;;;;;;1.65;51.10;98936.56;5030547;28;20046;-60
2022/02/14 08:45:29;;;;;;;9.00;4.88;;;;;;;1.58;51.45;98939.16;5031190;28;20045;-61
2022/02/14 08:47:55;;;;;;;7.38;4.50;;;;;;;1.80;50.71;98934.69;5032276;28;20504;-62
2022/02/14 08:50:21;;;;;;;9.68;4.80;;;;;;;2.08;50.50;98932.00;5031542;28;20045;-58
2022/02/14 08:52:47;;;;;;;8.43;4.78;;;;;;;2.27;49.76;98927.91;5010957;28;20045;-61
2022/02/14 08:55:14;;;;;;;8.43;4.28;;;;;;;2.44;49.55;98923.94;5030258;28;20052;-59
2022/02/14 08:57:41;;;;;;;10.13;5.53;;;;;;;2.65;49.37;98935.28;5014191;28;20053;-61
2022/02/14 09:00:08;;;;;;;9.50;5.88;;;;;;;2.78;49.39;98926.66;5032012;28;20045;-60
2022/02/14 09:02:34;;;;;;;8.80;5.10;;;;;;;2.88;48.80;98916.59;5031250;28;20511;-60
2022/02/14 09:05:00;;;;;;;7.75;5.15;;;;;;;3.09;48.07;98923.47;5030822;28;20045;-60
2022/02/14 09:07:25;;;;;;;9.50;5.03;;;;;;;2.76;48.48;98895.44;5027425;28;20065;-61
2022/02/14 09:09:51;;;;;;;11.60;5.00;;;;;;;2.95;48.51;98927.91;5031218;28;20180;-60
2022/02/14 09:12:18;;;;;;;9.80;5.40;;;;;;;2.80;49.23;98937.75;5014660;28;20076;-62
2022/02/14 09:14:44;;;;;;;8.57;4.45;;;;;;;2.88;49.32;98940.97;5008973;28;20463;-59
2022/02/14 09:17:10;;;;;;;11.60;5.15;;;;;;;3.04;48.64;98936.38;5009689;28;20045;-62
2022/02/14 09:19:36;;;;;;;10.00;5.55;;;;;;;3.06;48.74;98934.34;5012464;28;20054;-61
2022/02/14 09:22:02;;;;;;;9.63;5.30;;;;;;;3.27;48.34;98928.94;5011028;28;20042;-60
2022/02/14 09:24:30;;;;;;;7.07;4.85;;;;;;;3.30;48.17;98915.44;5010682;28;20050;-59
2022/02/14 09:26:57;;;;;;;9.98;5.82;;;;;;;3.49;47.99;98915.63;5009806;28;20041;-60
2022/02/14 09:29:23;;;;;;;10.10;5.25;;;;;;;3.31;47.67;98924.09;5012818;28;20076;-59
2022/02/14 09:31:51;;;;;;;9.05;5.45;;;;;;;3.23;47.91;98916.44;5041862;28;20309;-60
2022/02/14 09:34:19;;;;;;;13.63;5.82;;;;;;;3.14;48.49;98921.84;5031316;28;20052;-61
2022/02/14 09:36:46;;;;;;;11.85;5.90;;;;;;;3.10;48.76;98925.09;5044758;28;20419;-62
2022/02/14 09:39:12;;;;;;;7.50;4.82;;;;;;;3.12;48.21;98910.78;4997173;28;20072;-61
2022/02/14 09:41:37;;;;;;;11.95;5.47;;;;;;;3.39;47.79;98913.41;5041192;28;20526;-61
2022/02/14 09:44:05;;;;;;;10.90;6.05;;;;;;;3.53;47.45;98928.13;5037530;28;20041;-61
2022/02/14 09:46:32;;;;;;;9.50;5.10;;;;;;;3.49;47.25;98905.13;5012732;28;20044;-62
2022/02/14 09:49:02;;;;;;;12.02;5.88;;;;;;;3.45;47.85;98904.75;5042262;28;20045;-62
2022/02/14 09:51:29;;;;;;;10.07;5.45;;;;;;;3.45;47.44;98907.38;5048272;28;20041;-59
2022/02/14 09:53:55;;;;;;;9.13;5.35;;;;;;;3.41;47.87;98896.50;5048365;28;20060;-61
2022/02/14 09:56:22;;;;;;;10.63;5.65;;;;;;;3.49;47.73;98902.53;5020394;28;20049;-60
2022/02/14 09:58:49;;;;;;;11.45;5.68;;;;;;;3.53;48.05;98899.31;5027238;28;20041;-60
2022/02/14 10:01:17;;;;;;;12.68;5.65;;;;;;;3.77;47.30;98897.03;5039298;28;20113;-62
2022/02/14 10:03:52;;;;;;;10.02;5.55;;;;;;;3.71;47.56;98898.66;5043468;28;20059;-62
2022/02/14 10:06:28;;;;;;;13.55;6.47;;;;;;;3.71;47.60;98896.03;5033086;28;20089;-62
2022/02/14 10:09:14;;;;;;;10.55;6.05;;;;;;;3.74;47.63;98900.06;5029114;28;20487;-60
2022/02/14 10:12:13;;;;;;;11.52;6.05;;;;;;;3.72;47.87;98907.34;5008197;28;20054;-63
2022/02/14 10:14:40;;;;;;;13.35;5.93;;;;;;;3.48;47.82;98909.59;4999567;28;20046;-62
2022/02/14 10:17:18;;;;;;;10.27;6.22;;;;;;;3.30;48.92;98912.81;5033364;28;20048;-60
2022/02/14 10:19:58;;;;;;;11.57;6.10;;;;;;;3.15;48.78;98920.06;5029324;28;20427;-60
2022/02/14 10:22:24;;;;;;;12.95;6.13;;;;;;;3.13;48.80;98915.03;5047312;28;20044;-60
2022/02/14 10:24:50;;;;;;;11.75;6.00;;;;;;;3.12;49.35;98913.41;5029856;28;20056;-61
2022/02/14 10:28:23;;;;;;;8.88;5.93;;;;;;;3.19;49.20;98916.84;5032817;28;20043;-58
2022/02/14 10:31:05;;;;;;;15.45;6.72;;;;;;;3.00;49.32;98903.72;4945387;28;20051;-61
2022/02/14 10:33:50;;;;;;;10.45;5.80;;;;;;;2.89;49.67;98902.50;5005534;28;20574;-61
2022/02/14 10:36:31;;;;;;;10.45;6.28;;;;;;;2.80;49.81;98891.44;5007153;28;20046;-62
2022/02/14 10:39:07;;;;;;;11.70;6.07;;;;;;;2.75;50.35;98895.63;5013838;28;20188;-62
2022/02/14 10:41:33;;;;;;;11.90;6.60;;;;;;;2.43;50.98;98901.38;5027475;28;20581;-62
2022/02/14 10:44:10;;;;;;;9.50;6.07;;;;;;;2.36;51.39;98897.94;5006765;28;20041;-60
2022/02/14 10:46:37;;;;;;;11.90;6.90;;;;;;;2.44;51.14;98894.34;5039613;28;20068;-62
2022/02/14 10:49:04;;;;;;;11.77;6.93;;;;;;;2.67;50.67;98902.66;5045075;28;20055;-60
2022/02/14 10:51:30;;;;;;;11.50;5.82;;;;;;;2.66;50.35;98900.25;5047326;28;20044;-61
2022/02/14 10:53:57;;;;;;;10.65;5.93;;;;;;;2.72;50.72;98899.47;5045566;28;20375;-63
2022/02/14 10:56:27;;;;;;;11.35;5.90;;;;;;;2.74;50.45;98897.47;5048125;28;20048;-61
2022/02/14 10:59:08;;;;;;;15.18;7.55;;;;;;;2.79;50.65;98895.03;5004714;28;20060;-60
2022/02/14 11:01:35;;;;;;;12.02;6.50;;;;;;;2.78;50.18;98901.28;5025301;28;20418;-60
2022/02/14 11:04:00;;;;;;;14.43;7.47;;;;;;;2.79;50.63;98902.06;5035420;28;20037;-61
2022/02/14 11:06:50;;;;;;;12.00;7.00;;;;;;;2.77;50.72;98896.25;5049550;28;20457;-59
2022/02/14 11:09:46;;;;;;;11.50;6.65;;;;;;;2.47;51.35;98894.78;4982555;28;20104;-61
2022/02/14 11:12:12;;;;;;;13.48;7.22;;;;;;;2.31;51.86;98896.94;4968392;28;20233;-61
2022/02/14 11:14:40;;;;;;;12.45;6.88;;;;;;;2.25;52.68;98895.91;4971896;28;20112;-61
2022/02/14 11:17:08;;;;;;;12.27;6.45;;;;;;;2.21;52.30;98902.53;4969357;28;20042;-62
2022/02/14 11:19:36;;;;;;;11.25;6.60;;;;;;;2.17;52.57;98902.09;4994321;28;20104;-61
2022/02/14 11:22:04;;;;;;;12.48;6.97;;;;;;;2.09;52.79;98891.81;4989635;28;20436;-61
2022/02/14 11:24:30;;;;;;;13.18;6.60;;;;;;;2.13;53.06;98903.50;4992767;28;20046;-60
2022/02/14 11:27:03;;;;;;;12.55;7.13;;;;;;;2.17;52.99;98904.69;4979286;28;20042;-62
2022/02/14 11:29:51;;;;;;;13.75;7.07;;;;;;;2.04;52.76;98907.28;4989440;28;20061;-60
2022/02/14 11:32:19;;;;;;;13.75;7.43;;;;;;;2.06;53.30;98905.28;4990468;28;20039;-61
2022/02/14 11:35:06;;;;;;;17.95;7.13;;;;;;;2.12;53.51;98896.66;4987519;28;20089;-60
2022/02/14 11:37:56;;;;;;;11.57;7.13;;;;;;;2.09;53.25;98902.28;4988612;28;20042;-62